Time;durP1;ratioP1;P1;durP2;ratioP2;P2;SDS_P1;SDS_P2;PMS_P1;PMS_P2;Temp;Humidity;BMP_temperature;BMP_pressure;BME280_temperature;BME280_humidity;BME280_pressure;Samples;Min_cycle;Max_cycle;Signal;HPM_P1;HPM_P2
2022/01/12 00:02:09;;;;;;;7.40;5.10;;;;;;;-0.06;86.43;151356.88;4993208;28;20442;-82
2022/01/12 00:04:45;;;;;;;6.43;5.40;;;;;;;-0.03;86.22;151363.28;4992634;28;20434;-82
2022/01/12 00:07:20;;;;;;;7.87;5.70;;;;;;;0.02;86.17;151376.09;4993312;28;20911;-82
2022/01/12 00:09:56;;;;;;;6.20;5.00;;;;;;;0.02;86.04;151374.81;4993525;28;20457;-81
2022/01/12 00:12:32;;;;;;;6.20;5.60;;;;;;;0.02;86.06;151376.09;4994519;28;20453;-82
2022/01/12 00:15:08;;;;;;;7.33;6.00;;;;;;;0.09;85.39;151392.75;4994788;28;20441;-81
2022/01/12 00:17:45;;;;;;;7.40;5.50;;;;;;;0.05;85.16;151382.50;4993471;28;20863;-81
2022/01/12 00:20:20;;;;;;;6.07;5.37;;;;;;;0.06;86.02;151385.06;4993157;28;20470;-82
2022/01/12 00:22:57;;;;;;;10.57;5.60;;;;;;;0.07;85.16;151387.63;4984809;28;20467;-81
2022/01/12 00:25:44;;;;;;;8.10;5.50;;;;;;;0.03;86.16;151377.41;4992883;28;20935;-81
2022/01/12 00:34:08;;;;;;;12.03;6.30;;;;;;;0.16;84.63;151410.75;4977689;28;20422;-82
2022/01/12 00:36:44;;;;;;;8.63;5.47;;;;;;;0.08;85.42;151390.22;4977629;28;20445;-82
2022/01/12 00:39:20;;;;;;;7.40;6.27;;;;;;;0.05;85.68;151382.50;4977241;28;21014;-82
2022/01/12 00:41:56;;;;;;;8.67;5.73;;;;;;;0.01;86.01;151373.53;4991958;28;20961;-82
2022/01/12 00:44:35;;;;;;;7.57;6.03;;;;;;;-0.04;86.15;151361.97;4995323;28;20899;-82
2022/01/12 00:47:11;;;;;;;8.97;6.30;;;;;;;-0.07;86.71;151354.28;4978257;28;20781;-82
2022/01/12 00:49:48;;;;;;;7.53;6.03;;;;;;;-0.09;86.59;151349.16;4993196;28;20472;-82
2022/01/12 00:52:24;;;;;;;11.47;6.50;;;;;;;-0.12;87.99;151341.44;4958453;28;21037;-82
2022/01/12 00:55:00;;;;;;;10.60;6.10;;;;;;;-0.13;87.17;151338.88;4973662;28;20847;-82
2022/01/12 00:57:35;;;;;;;7.63;6.50;;;;;;;-0.17;87.39;151328.63;4958685;28;20902;-82
2022/01/12 01:00:12;;;;;;;7.37;6.20;;;;;;;-0.18;87.73;151324.75;4966669;28;20495;-82
2022/01/12 01:02:48;;;;;;;10.13;6.07;;;;;;;-0.21;88.00;151318.34;4978325;28;20443;-82
2022/01/12 01:05:27;;;;;;;9.10;6.40;;;;;;;-0.19;87.95;151322.22;4977811;28;20450;-82
2022/01/12 01:08:03;;;;;;;7.10;5.80;;;;;;;-0.18;87.88;151326.03;4993213;28;20449;-82
2022/01/12 01:10:46;;;;;;;7.83;5.60;;;;;;;-0.16;88.19;151331.16;4992872;28;20889;-83
2022/01/12 01:13:34;;;;;;;10.03;6.33;;;;;;;-0.26;88.28;151305.50;4977220;28;20445;-82
2022/01/12 01:16:18;;;;;;;7.43;5.73;;;;;;;-0.29;87.98;151297.81;4991837;28;20466;-83
2022/01/12 01:27:38;;;;;;;7.20;5.80;;;;;;;-0.31;88.70;151292.69;4992170;28;20422;-82
2022/01/12 01:30:15;;;;;;;6.47;5.37;;;;;;;-0.35;89.31;151281.16;4976437;28;20476;-82
2022/01/12 01:32:52;;;;;;;8.17;6.33;;;;;;;-0.42;88.61;151264.47;4976730;28;20454;-82
2022/01/12 01:35:30;;;;;;;8.47;5.70;;;;;;;-0.48;89.40;151249.09;4992192;28;20458;-83
2022/01/12 01:38:08;;;;;;;10.80;7.23;;;;;;;-0.54;88.45;151233.69;4977441;28;20435;-81
2022/01/12 01:40:43;;;;;;;9.23;6.77;;;;;;;-0.61;89.03;151215.75;4976753;28;21062;-82
2022/01/12 01:43:25;;;;;;;9.30;6.67;;;;;;;-0.58;88.97;151223.41;4972659;28;20441;-82
2022/01/12 01:54:48;;;;;;;11.27;7.13;;;;;;;-0.40;87.21;151269.63;4975665;28;20458;-82
2022/01/12 01:57:24;;;;;;;7.97;6.00;;;;;;;-0.47;87.55;151251.63;4957367;28;20451;-82
2022/01/12 02:00:01;;;;;;;8.50;6.00;;;;;;;-0.52;88.24;151238.81;4974733;28;20444;-82
2022/01/12 02:02:36;;;;;;;7.20;5.47;;;;;;;-0.43;87.35;151261.94;4991982;28;20435;-82
2022/01/12 02:05:12;;;;;;;7.43;5.33;;;;;;;-0.57;87.92;151224.69;4975923;28;20802;-82
2022/01/12 02:07:48;;;;;;;5.77;5.00;;;;;;;-0.62;87.93;151213.19;4976055;28;20457;-82
2022/01/12 02:10:26;;;;;;;7.47;4.90;;;;;;;-0.54;87.38;151233.69;4976461;28;20441;-83
2022/01/12 02:13:03;;;;;;;6.60;4.50;;;;;;;-0.55;87.64;151229.81;4976263;28;20429;-82
2022/01/12 02:15:40;;;;;;;6.23;5.03;;;;;;;-0.60;87.61;151218.28;4972381;28;20561;-81
2022/01/12 02:18:20;;;;;;;8.00;4.83;;;;;;;-0.64;88.79;151209.28;4957869;28;20433;-82
2022/01/12 02:35:49;;;;;;;8.20;6.93;;;;;;;-0.70;89.47;151192.66;4977515;28;20493;-82
2022/01/12 02:41:19;;;;;;;7.00;6.30;;;;;;;-0.89;91.08;151145.22;4980173;28;20976;-81
2022/01/12 02:55:32;;;;;;;8.83;7.43;;;;;;;-1.08;92.04;151095.19;4966857;28;20473;-81
2022/01/12 02:58:08;;;;;;;9.73;6.90;;;;;;;-1.14;92.46;151081.13;4961182;28;20462;-82
2022/01/12 03:01:02;;;;;;;9.63;7.40;;;;;;;-0.99;92.38;151118.28;4993382;28;20485;-81
2022/01/12 03:03:41;;;;;;;10.27;7.20;;;;;;;-0.95;92.35;151128.50;4995738;28;20442;-81
2022/01/12 03:06:19;;;;;;;11.80;8.70;;;;;;;-0.97;92.10;151124.69;4979828;28;20928;-81
2022/01/12 03:08:55;;;;;;;10.23;7.30;;;;;;;-0.93;92.01;151133.69;4991656;28;20443;-81
2022/01/12 03:11:32;;;;;;;10.83;7.90;;;;;;;-0.95;91.99;151128.50;4993263;28;20471;-81
2022/01/12 03:14:18;;;;;;;11.53;7.80;;;;;;;-0.90;91.76;151141.38;4961621;28;20881;-81
2022/01/12 03:16:54;;;;;;;10.07;7.50;;;;;;;-1.01;92.29;151113.16;4981245;28;20477;-80
2022/01/12 03:19:35;;;;;;;10.80;7.30;;;;;;;-0.94;92.53;151131.09;4991225;28;20766;-81
2022/01/12 03:22:11;;;;;;;10.10;7.80;;;;;;;-1.16;93.64;151075.97;4994394;28;20473;-81
2022/01/12 03:24:47;;;;;;;10.80;8.20;;;;;;;-1.10;93.54;151091.38;4978896;28;20439;-81
2022/01/12 03:27:26;;;;;;;9.10;7.20;;;;;;;-1.03;92.63;151108.06;4978561;28;20523;-81
2022/01/12 03:30:01;;;;;;;11.60;8.03;;;;;;;-1.09;93.19;151092.66;4977583;28;20448;-80
2022/01/12 03:32:43;;;;;;;10.27;8.00;;;;;;;-1.22;93.75;151061.88;4994208;28;20437;-81
2022/01/12 03:35:35;;;;;;;11.57;7.30;;;;;;;-1.19;93.51;151067.03;4991737;28;20438;-80
2022/01/12 03:38:20;;;;;;;11.77;7.83;;;;;;;-1.26;93.32;151051.63;4983467;28;20484;-81
2022/01/12 03:40:56;;;;;;;11.77;8.60;;;;;;;-1.31;93.64;151037.53;4994005;28;20463;-81
2022/01/12 03:43:33;;;;;;;12.50;7.87;;;;;;;-1.35;95.11;151027.28;4978739;28;20948;-81
2022/01/12 03:46:09;;;;;;;10.20;7.93;;;;;;;-1.39;94.87;151017.03;4993913;28;20810;-81
2022/01/12 03:48:45;;;;;;;11.63;8.73;;;;;;;-1.34;94.54;151031.13;4990319;28;20803;-81
2022/01/12 03:51:20;;;;;;;11.30;8.60;;;;;;;-1.31;94.04;151038.81;4979449;28;20457;-81
2022/01/12 03:53:56;;;;;;;9.30;7.70;;;;;;;-1.28;94.17;151045.22;4978833;28;20449;-81
2022/01/12 03:56:32;;;;;;;13.10;8.03;;;;;;;-1.34;93.80;151031.13;4976770;28;20445;-81
2022/01/12 03:59:10;;;;;;;11.37;8.10;;;;;;;-1.40;94.57;151014.44;4964690;28;20451;-81
2022/01/12 04:01:46;;;;;;;9.87;8.07;;;;;;;-1.47;94.86;150996.50;4978362;28;20850;-81
2022/01/12 04:04:31;;;;;;;10.40;8.57;;;;;;;-1.43;95.24;151008.03;4977480;28;20460;-81
2022/01/12 04:10:01;;;;;;;11.37;8.67;;;;;;;-1.48;95.20;150995.22;4974719;28;20440;-80
2022/01/12 04:12:37;;;;;;;9.73;7.60;;;;;;;-1.47;94.85;150996.50;4992853;28;20476;-81
2022/01/12 04:15:14;;;;;;;10.20;7.63;;;;;;;-1.41;94.65;151013.19;4994316;28;20523;-81
2022/01/12 04:17:51;;;;;;;10.57;7.40;;;;;;;-1.43;95.13;151008.03;4978869;28;20438;-80
2022/01/12 04:20:26;;;;;;;15.00;8.70;;;;;;;-1.45;94.36;151002.91;4976946;28;20499;-81
2022/01/12 04:23:18;;;;;;;11.40;8.63;;;;;;;-1.42;94.92;151010.63;4978529;28;20737;-81
2022/01/12 04:25:56;;;;;;;14.10;10.00;;;;;;;-1.37;94.09;151022.13;4977959;28;20458;-80
2022/01/12 04:28:32;;;;;;;13.07;9.73;;;;;;;-1.47;94.92;150997.81;4990796;28;20549;-80
2022/01/12 04:31:10;;;;;;;12.20;8.40;;;;;;;-1.45;94.65;151002.91;4978033;28;20456;-80
2022/01/12 04:33:46;;;;;;;10.90;9.40;;;;;;;-1.48;94.99;150995.22;4978256;28;20464;-80
2022/01/12 04:36:22;;;;;;;14.10;10.07;;;;;;;-1.47;94.90;150997.81;4977708;28;20438;-81
2022/01/12 04:38:57;;;;;;;13.07;9.70;;;;;;;-1.44;95.45;151005.50;4967558;28;20455;-80
2022/01/12 04:41:33;;;;;;;13.53;8.70;;;;;;;-1.45;95.68;151002.91;4965967;28;20883;-80
2022/01/12 04:44:11;;;;;;;12.30;8.90;;;;;;;-1.59;96.01;150967.03;4977362;28;20944;-80
2022/01/12 04:46:52;;;;;;;12.00;9.40;;;;;;;-1.61;96.77;150961.91;4978020;28;20449;-80
2022/01/12 04:49:47;;;;;;;15.33;9.27;;;;;;;-1.65;97.27;150950.41;4973841;28;20445;-80
2022/01/12 04:52:23;;;;;;;16.73;10.00;;;;;;;-1.60;96.54;150963.19;4987737;28;20857;-81
2022/01/12 04:54:59;;;;;;;12.17;8.67;;;;;;;-1.63;97.37;150956.78;4975735;28;20881;-80
2022/01/12 04:57:36;;;;;;;13.87;9.80;;;;;;;-1.68;96.78;150943.97;4976524;28;20461;-81
2022/01/12 05:00:15;;;;;;;13.70;9.13;;;;;;;-1.74;96.87;150928.59;4992847;28;20442;-81
2022/01/12 05:08:52;;;;;;;15.30;11.63;;;;;;;-1.80;98.13;150913.22;4977204;28;20438;-80
2022/01/12 05:14:24;;;;;;;13.23;10.37;;;;;;;-1.68;97.38;150943.97;4993122;28;20435;-80
2022/01/12 05:16:59;;;;;;;16.20;10.57;;;;;;;-1.59;97.13;150965.78;4975092;28;20561;-80
2022/01/12 05:19:36;;;;;;;13.73;10.50;;;;;;;-1.77;97.95;150920.91;4978084;28;20434;-80
2022/01/12 05:22:12;;;;;;;17.27;10.93;;;;;;;-1.73;97.59;150929.88;4977387;28;20485;-80
2022/01/12 05:24:48;;;;;;;12.13;9.60;;;;;;;-1.74;97.58;150927.31;4992994;28;20460;-80
2022/01/12 05:27:23;;;;;;;12.67;9.20;;;;;;;-1.83;98.05;150906.81;4992199;28;20461;-80
2022/01/12 05:30:00;;;;;;;14.63;10.30;;;;;;;-1.90;99.29;150888.88;4977465;28;20448;-80
2022/01/12 05:32:36;;;;;;;17.63;12.23;;;;;;;-2.01;99.79;150859.41;4987849;28;20943;-80
2022/01/12 05:35:15;;;;;;;15.47;10.20;;;;;;;-2.02;100.00;150856.88;4974354;28;20453;-80
2022/01/12 05:37:50;;;;;;;16.93;11.33;;;;;;;-1.94;100.00;150877.38;4979377;28;20536;-80
2022/01/12 05:40:27;;;;;;;15.67;11.00;;;;;;;-2.02;100.00;150856.88;4977349;28;20437;-80
2022/01/12 05:43:03;;;;;;;15.57;10.53;;;;;;;-1.89;99.31;150890.19;4974741;28;20477;-79
2022/01/12 05:45:40;;;;;;;15.10;10.60;;;;;;;-1.98;99.72;150867.09;4973578;28;20461;-79
2022/01/12 05:51:11;;;;;;;14.23;10.23;;;;;;;-1.93;99.75;150879.91;4991616;28;20469;-80
2022/01/12 05:53:47;;;;;;;15.30;11.30;;;;;;;-1.92;99.82;150882.50;4971545;28;20455;-80
2022/01/12 05:56:23;;;;;;;16.50;11.80;;;;;;;-1.89;99.35;150890.19;4976353;28;20453;-80
2022/01/12 05:58:59;;;;;;;19.13;12.60;;;;;;;-1.81;99.28;150909.38;4976823;28;20441;-80
2022/01/12 06:01:34;;;;;;;16.87;12.20;;;;;;;-1.86;98.56;150897.88;4976962;28;21021;-80
2022/01/12 06:04:11;;;;;;;17.90;11.60;;;;;;;-1.99;99.94;150864.56;4976543;28;20438;-80
2022/01/12 06:06:48;;;;;;;21.27;12.40;;;;;;;-2.04;100.00;150851.78;4976120;28;20579;-80
2022/01/12 06:09:24;;;;;;;18.87;11.30;;;;;;;-2.09;99.72;150838.97;4973563;28;20441;-80
2022/01/12 06:12:00;;;;;;;16.97;12.60;;;;;;;-2.03;99.49;150855.59;4975873;28;20452;-80
2022/01/12 06:14:35;;;;;;;15.13;10.20;;;;;;;-1.93;99.55;150879.91;4983812;28;20445;-80
2022/01/12 06:17:12;;;;;;;17.60;12.70;;;;;;;-2.02;99.45;150856.88;5000358;28;20482;-80
2022/01/12 06:19:48;;;;;;;18.10;12.23;;;;;;;-2.13;100.00;150828.69;4997879;28;20442;-80
2022/01/12 06:22:37;;;;;;;21.70;12.43;;;;;;;-2.09;100.00;150840.22;5002457;28;20573;-80
2022/01/12 06:25:15;;;;;;;15.63;12.00;;;;;;;-2.07;100.00;150844.06;5004286;28;20433;-80
2022/01/12 06:27:54;;;;;;;18.20;12.30;;;;;;;-2.08;99.78;150841.50;4985863;28;20451;-80
2022/01/12 06:33:22;;;;;;;18.83;12.60;;;;;;;-2.15;99.99;150824.88;4999821;28;20773;-80
2022/01/12 06:35:58;;;;;;;18.57;12.00;;;;;;;-2.18;100.00;150815.91;4989609;28;20993;-80
2022/01/12 06:38:35;;;;;;;17.27;11.70;;;;;;;-2.13;100.00;150828.69;5007930;28;20452;-80
2022/01/12 06:41:12;;;;;;;19.13;11.57;;;;;;;-2.06;100.00;150846.59;4977218;28;20442;-79
2022/01/12 06:43:49;;;;;;;14.90;11.27;;;;;;;-2.14;99.30;150827.41;4990225;28;20517;-80
2022/01/12 06:46:30;;;;;;;19.57;12.03;;;;;;;-1.99;98.54;150865.84;4990508;28;20442;-80
2022/01/12 06:49:06;;;;;;;17.00;11.50;;;;;;;-2.15;99.55;150823.59;4975268;28;20448;-80
2022/01/12 06:51:42;;;;;;;18.93;11.63;;;;;;;-2.19;99.94;150813.31;4987552;28;20452;-80
2022/01/12 06:54:19;;;;;;;13.40;10.80;;;;;;;-2.17;99.71;150819.72;4988211;28;20531;-80
2022/01/12 06:56:55;;;;;;;19.17;12.03;;;;;;;-2.07;99.17;150844.06;4985226;28;20456;-80
2022/01/12 06:59:30;;;;;;;17.17;11.87;;;;;;;-2.07;99.24;150844.06;4978887;28;20433;-79
2022/01/12 07:02:08;;;;;;;15.77;10.87;;;;;;;-2.17;99.36;150818.47;4972659;28;20471;-80
2022/01/12 07:04:47;;;;;;;19.23;11.90;;;;;;;-2.17;99.40;150818.47;4988862;28;20447;-80
2022/01/12 07:07:24;;;;;;;16.70;10.80;;;;;;;-2.28;100.00;150790.28;4990504;28;20455;-80
2022/01/12 07:10:04;;;;;;;17.63;12.00;;;;;;;-2.24;100.00;150800.50;4984607;28;20449;-80
2022/01/12 07:12:43;;;;;;;18.70;12.40;;;;;;;-2.23;100.00;150803.09;4989892;28;20943;-80
2022/01/12 07:15:19;;;;;;;18.03;12.70;;;;;;;-2.23;100.00;150804.38;4982773;28;20474;-80
2022/01/12 07:17:55;;;;;;;18.90;12.30;;;;;;;-2.27;100.00;150792.81;4977785;28;20546;-79
2022/01/12 07:20:32;;;;;;;19.70;11.83;;;;;;;-2.31;100.00;150783.88;4979067;28;20436;-80
2022/01/12 07:23:07;;;;;;;19.27;12.97;;;;;;;-2.47;100.00;150742.91;4983699;28;20481;-80
2022/01/12 07:25:44;;;;;;;20.43;14.10;;;;;;;-2.55;100.00;150722.44;4991609;28;20964;-80
2022/01/12 07:28:20;;;;;;;19.77;12.87;;;;;;;-2.48;100.00;150740.34;4992367;28;20555;-80
2022/01/12 07:30:56;;;;;;;20.40;12.97;;;;;;;-2.49;100.00;150739.03;4984132;28;20461;-80
2022/01/12 07:33:32;;;;;;;18.23;13.07;;;;;;;-2.37;100.00;150767.22;4992319;28;20440;-80
2022/01/12 07:36:08;;;;;;;19.20;11.90;;;;;;;-2.24;100.00;150800.50;4993889;28;20531;-80
2022/01/12 07:38:44;;;;;;;21.00;13.20;;;;;;;-2.28;100.00;150791.59;4973178;28;20463;-80
2022/01/12 07:41:20;;;;;;;19.10;12.77;;;;;;;-2.28;100.00;150790.28;4981892;28;20464;-80
2022/01/12 07:43:56;;;;;;;21.87;13.60;;;;;;;-2.19;100.00;150814.59;4974706;28;20457;-80
2022/01/12 07:46:31;;;;;;;21.90;14.20;;;;;;;-2.16;100.00;150821.00;5003345;28;20453;-80
2022/01/12 07:49:07;;;;;;;21.53;14.13;;;;;;;-2.19;100.00;150814.59;4990246;28;20444;-80
2022/01/12 07:51:43;;;;;;;21.23;14.90;;;;;;;-2.09;100.00;150838.97;4991130;28;20870;-80
2022/01/12 07:54:18;;;;;;;22.03;13.57;;;;;;;-2.04;100.00;150851.78;4994163;28;20434;-79
2022/01/12 07:56:55;;;;;;;18.40;12.40;;;;;;;-1.91;100.00;150885.06;4994173;28;20474;-80
2022/01/12 07:59:31;;;;;;;19.80;13.60;;;;;;;-1.94;100.00;150878.66;4984191;28;20452;-80
2022/01/12 08:02:07;;;;;;;22.13;12.73;;;;;;;-1.89;100.00;150890.19;4986479;28;20951;-79
2022/01/12 08:04:43;;;;;;;20.37;14.13;;;;;;;-1.86;100.00;150897.88;4981599;28;20460;-80
2022/01/12 08:07:19;;;;;;;22.43;14.13;;;;;;;-1.82;99.89;150908.09;4999875;28;20502;-80
2022/01/12 08:09:55;;;;;;;23.50;13.63;;;;;;;-1.85;100.00;150901.69;4997024;28;20453;-80
2022/01/12 08:12:33;;;;;;;19.67;14.30;;;;;;;-1.78;100.00;150917.09;4987230;28;20455;-80
2022/01/12 08:15:10;;;;;;;21.80;14.83;;;;;;;-1.72;100.00;150933.72;4996401;28;20452;-80
2022/01/12 08:17:45;;;;;;;21.07;13.80;;;;;;;-1.67;100.00;150946.56;4998517;28;20444;-80
2022/01/12 08:20:26;;;;;;;17.83;13.30;;;;;;;-1.59;100.00;150967.03;4983239;28;20433;-80
2022/01/12 08:23:02;;;;;;;19.30;12.60;;;;;;;-1.47;100.00;150997.81;4979380;28;20454;-80
2022/01/12 08:25:39;;;;;;;21.00;13.10;;;;;;;-1.37;100.00;151023.44;4998830;28;20453;-80
2022/01/12 08:28:17;;;;;;;17.80;13.40;;;;;;;-1.28;100.00;151046.50;4981818;28;20452;-80
2022/01/12 08:30:52;;;;;;;17.17;13.03;;;;;;;-1.19;100.00;151067.03;4988842;28;20930;-79
2022/01/12 08:33:29;;;;;;;18.53;13.00;;;;;;;-1.03;100.00;151108.06;4987326;28;20436;-80
2022/01/12 08:36:05;;;;;;;18.67;13.50;;;;;;;-0.99;100.00;151118.28;5001607;28;20441;-79
2022/01/12 08:38:40;;;;;;;18.67;13.60;;;;;;;-0.92;100.00;151137.50;4998549;28;20938;-80
2022/01/12 08:41:16;;;;;;;19.67;14.23;;;;;;;-0.80;100.00;151167.00;5000811;28;20472;-80
2022/01/12 08:43:53;;;;;;;19.77;13.13;;;;;;;-0.71;100.00;151190.06;4991604;28;20477;-81
2022/01/12 08:46:28;;;;;;;21.90;14.03;;;;;;;-0.65;100.00;151206.75;4991840;28;20446;-80
2022/01/12 08:49:05;;;;;;;20.33;13.70;;;;;;;-0.55;100.00;151229.81;4976131;28;20444;-80
2022/01/12 08:51:40;;;;;;;21.20;13.50;;;;;;;-0.54;98.70;151232.41;4992079;28;20438;-80
2022/01/12 08:54:16;;;;;;;18.70;13.37;;;;;;;-0.55;96.52;151231.13;4991912;28;20433;-81
2022/01/12 08:56:51;;;;;;;17.93;12.50;;;;;;;-0.55;96.40;151231.13;4991522;28;20442;-81
2022/01/12 08:59:28;;;;;;;19.00;12.97;;;;;;;-0.50;97.43;151243.94;4977127;28;20445;-80
2022/01/12 09:02:06;;;;;;;20.20;13.60;;;;;;;-0.58;94.45;151222.16;4993256;28;20566;-80
2022/01/12 09:04:43;;;;;;;14.60;10.70;;;;;;;-0.50;94.61;151242.69;4991305;28;20813;-80
2022/01/12 09:07:19;;;;;;;17.83;12.10;;;;;;;-0.50;94.81;151242.69;4986988;28;20486;-80
2022/01/12 09:09:54;;;;;;;15.83;12.27;;;;;;;-0.46;96.18;151252.94;4982126;28;20450;-80
2022/01/12 09:12:30;;;;;;;16.10;12.43;;;;;;;-0.41;96.31;151267.03;4974319;28;20441;-80
2022/01/12 09:15:09;;;;;;;18.73;12.70;;;;;;;-0.42;97.49;151264.47;4973849;28;20422;-80
2022/01/12 09:17:46;;;;;;;15.97;12.00;;;;;;;-0.43;98.27;151260.63;5007006;28;20448;-80
2022/01/12 09:20:22;;;;;;;19.23;13.73;;;;;;;-0.48;96.48;151247.81;4985172;28;20922;-80
2022/01/12 09:22:58;;;;;;;15.60;12.13;;;;;;;-0.46;97.67;151254.22;4975454;28;20479;-80
2022/01/12 09:25:35;;;;;;;15.77;12.33;;;;;;;-0.43;96.51;151261.94;4990065;28;20524;-80
2022/01/12 09:28:11;;;;;;;17.20;12.07;;;;;;;-0.41;98.51;151265.75;4976659;28;20975;-80
2022/01/12 09:30:48;;;;;;;19.30;13.07;;;;;;;-0.40;96.40;151268.34;4990695;28;20455;-80
2022/01/12 09:33:23;;;;;;;19.37;13.37;;;;;;;-0.39;96.45;151270.88;4987444;28;20973;-80
2022/01/12 09:35:59;;;;;;;21.20;14.00;;;;;;;-0.40;96.07;151268.34;4966074;28;20453;-80
2022/01/12 09:38:34;;;;;;;22.23;14.63;;;;;;;-0.31;96.13;151292.69;4992567;28;20461;-80
2022/01/12 09:41:10;;;;;;;16.30;12.87;;;;;;;-0.28;95.28;151300.41;4976310;28;20453;-80
2022/01/12 09:43:49;;;;;;;18.73;14.03;;;;;;;-0.23;95.13;151313.22;4974530;28;20911;-80
2022/01/12 09:46:27;;;;;;;16.07;12.87;;;;;;;-0.11;91.69;151344.00;4986319;28;20450;-80
2022/01/12 09:49:06;;;;;;;15.67;12.17;;;;;;;-0.01;91.03;151368.41;4977783;28;20872;-80
2022/01/12 09:51:42;;;;;;;15.20;12.13;;;;;;;-0.08;90.54;151350.44;4973768;28;20417;-81
2022/01/12 09:54:18;;;;;;;16.40;11.70;;;;;;;-0.09;89.67;151349.16;4977842;28;20490;-81
2022/01/12 09:56:54;;;;;;;17.10;10.87;;;;;;;-0.11;87.83;151342.75;4981025;28;20841;-80
2022/01/12 09:59:30;;;;;;;16.57;11.57;;;;;;;-0.12;87.71;151340.16;4990742;28;20443;-81
2022/01/12 10:02:16;;;;;;;15.73;11.70;;;;;;;-0.09;89.01;151349.16;4989728;28;20507;-80
2022/01/12 10:05:00;;;;;;;15.30;10.80;;;;;;;-0.10;87.45;151345.28;4985951;28;20450;-81
2022/01/12 10:07:37;;;;;;;16.13;12.13;;;;;;;-0.06;87.52;151356.88;4984574;28;20996;-80
2022/01/12 10:10:15;;;;;;;13.17;10.23;;;;;;;-0.07;87.88;151354.28;4983815;28;20437;-81
2022/01/12 10:12:55;;;;;;;15.90;11.17;;;;;;;-0.05;87.00;151359.41;4976135;28;20832;-80
2022/01/12 10:15:31;;;;;;;14.43;9.87;;;;;;;-0.16;85.67;151329.91;4999934;28;20482;-80
2022/01/12 10:18:08;;;;;;;13.60;10.03;;;;;;;-0.13;86.42;151338.88;4977642;28;20459;-80
2022/01/12 10:20:44;;;;;;;12.53;10.40;;;;;;;-0.11;86.78;151344.00;4991433;28;20434;-81
2022/01/12 10:23:23;;;;;;;15.47;9.00;;;;;;;-0.01;86.54;151368.41;4984460;28;21017;-80
2022/01/12 10:25:58;;;;;;;16.27;11.33;;;;;;;0.05;85.56;151382.50;4981766;28;20457;-82
2022/01/12 10:28:35;;;;;;;14.43;9.60;;;;;;;-0.10;84.85;151346.56;4987959;28;20549;-82
2022/01/12 10:31:16;;;;;;;12.03;10.03;;;;;;;-0.07;87.89;151354.28;4983323;28;20454;-81
2022/01/12 10:34:02;;;;;;;14.73;10.57;;;;;;;-0.10;86.04;151346.56;5006245;28;20766;-81
2022/01/12 10:36:39;;;;;;;14.67;11.50;;;;;;;-0.12;86.48;151341.44;4989166;28;20452;-81
2022/01/12 10:39:16;;;;;;;14.37;10.90;;;;;;;0.06;85.62;151385.06;4987337;28;20440;-81
2022/01/12 10:42:00;;;;;;;16.17;11.40;;;;;;;0.13;84.56;151404.34;4989602;28;20817;-81
2022/01/12 10:44:37;;;;;;;14.57;10.73;;;;;;;0.09;86.27;151394.06;4991877;28;20467;-81
2022/01/12 10:47:16;;;;;;;14.70;10.83;;;;;;;0.05;85.97;151383.81;4987315;28;20486;-81
2022/01/12 10:50:02;;;;;;;13.53;10.70;;;;;;;0.10;83.63;151395.34;4980519;28;20440;-82
2022/01/12 10:52:39;;;;;;;17.70;11.83;;;;;;;0.09;83.75;151392.75;4982973;28;20470;-81
2022/01/12 10:55:17;;;;;;;13.53;10.87;;;;;;;-0.02;85.06;151367.09;4993482;28;20450;-81
2022/01/12 10:57:56;;;;;;;14.83;11.37;;;;;;;0.09;85.78;151394.06;4996168;28;20437;-81
2022/01/12 11:00:32;;;;;;;13.00;9.87;;;;;;;0.10;85.96;151395.34;4995269;28;20428;-81
2022/01/12 11:03:08;;;;;;;16.53;12.00;;;;;;;0.13;85.93;151404.34;4992467;28;20470;-81
2022/01/12 11:05:45;;;;;;;15.30;11.50;;;;;;;0.24;85.60;151432.53;4995558;28;20443;-81
2022/01/12 11:08:22;;;;;;;16.43;11.07;;;;;;;0.25;85.47;151435.13;4994333;28;20461;-81
2022/01/12 11:10:59;;;;;;;21.60;12.77;;;;;;;0.19;84.69;151419.72;4995105;28;20437;-82
2022/01/12 11:13:36;;;;;;;14.80;11.03;;;;;;;0.15;84.32;151408.19;4993233;28;20973;-81
2022/01/12 11:16:12;;;;;;;13.90;11.30;;;;;;;-0.01;85.06;151369.69;4982792;28;20484;-81
2022/01/12 11:18:48;;;;;;;17.10;11.20;;;;;;;0.31;84.51;151449.25;4986352;28;20779;-80
2022/01/12 11:21:33;;;;;;;15.03;11.00;;;;;;;0.28;84.14;151441.53;4995280;28;20433;-81
2022/01/12 11:24:12;;;;;;;14.20;11.00;;;;;;;0.15;83.47;151408.19;4979108;28;20492;-81
2022/01/12 11:26:49;;;;;;;16.17;11.70;;;;;;;0.17;85.00;151413.28;4997167;28;20813;-81
2022/01/12 11:29:26;;;;;;;19.33;11.73;;;;;;;0.24;84.47;151432.53;4977999;28;20507;-80
2022/01/12 11:32:06;;;;;;;16.03;11.97;;;;;;;0.17;84.96;151414.59;4999626;28;20837;-80
2022/01/12 11:34:41;;;;;;;19.80;12.07;;;;;;;0.25;84.48;151433.84;4997303;28;20464;-80
2022/01/12 11:37:18;;;;;;;16.37;12.27;;;;;;;0.27;83.76;151438.97;4993772;28;20454;-81
2022/01/12 11:39:54;;;;;;;18.63;13.10;;;;;;;0.27;83.92;151438.97;4995003;28;20957;-81
2022/01/12 11:42:35;;;;;;;16.77;12.10;;;;;;;0.22;83.27;151426.13;5006593;28;20449;-81
2022/01/12 11:45:20;;;;;;;17.53;11.13;;;;;;;0.14;83.76;151405.59;4994204;28;20454;-80
2022/01/12 11:47:56;;;;;;;15.90;11.77;;;;;;;0.27;83.19;151440.25;4980092;28;20458;-81
2022/01/12 11:50:31;;;;;;;15.10;10.43;;;;;;;0.29;83.50;151444.13;4977269;28;20457;-81
2022/01/12 11:53:08;;;;;;;13.50;9.30;;;;;;;0.18;82.72;151417.19;5008932;28;20445;-80
2022/01/12 11:55:43;;;;;;;15.27;10.17;;;;;;;0.14;83.10;151406.88;4990474;28;20455;-81
2022/01/12 11:58:19;;;;;;;14.97;11.00;;;;;;;0.11;84.17;151399.16;4985694;28;20461;-81
2022/01/12 12:00:55;;;;;;;12.30;9.37;;;;;;;0.22;84.20;151427.41;4975197;28;20449;-81
2022/01/12 12:03:30;;;;;;;12.53;9.77;;;;;;;0.23;83.25;151428.72;4979582;28;21110;-81
2022/01/12 12:06:16;;;;;;;14.53;11.10;;;;;;;0.39;82.97;151471.09;4991804;28;20540;-80
2022/01/12 12:08:58;;;;;;;15.60;10.77;;;;;;;0.45;82.57;151485.22;4978601;28;20434;-81
2022/01/12 12:11:34;;;;;;;15.73;10.57;;;;;;;0.34;83.89;151456.97;4996650;28;20442;-81
2022/01/12 12:14:09;;;;;;;16.30;11.57;;;;;;;0.28;83.54;151442.84;5009252;28;20437;-81
2022/01/12 12:16:46;;;;;;;20.67;12.87;;;;;;;0.43;82.75;151480.03;4993347;28;20491;-83
2022/01/12 12:19:22;;;;;;;18.23;12.47;;;;;;;0.48;82.42;151492.88;4992234;28;20453;-81
2022/01/12 12:21:57;;;;;;;15.87;11.37;;;;;;;0.31;82.84;151449.25;4993283;28;20477;-81
2022/01/12 12:24:34;;;;;;;14.87;10.87;;;;;;;0.40;83.85;151472.31;4993340;28;20539;-81
2022/01/12 12:27:11;;;;;;;15.00;11.40;;;;;;;0.33;83.24;151454.38;4963044;28;20450;-81
2022/01/12 12:29:48;;;;;;;14.67;11.50;;;;;;;0.33;83.45;151455.66;4977788;28;21058;-81
2022/01/12 12:32:35;;;;;;;15.00;10.87;;;;;;;0.42;83.40;151477.50;4976943;28;20758;-81
2022/01/12 12:35:12;;;;;;;14.57;10.63;;;;;;;0.39;83.12;151471.09;4991012;28;20847;-81
2022/01/12 12:37:50;;;;;;;13.60;9.30;;;;;;;0.47;83.22;151490.34;4992128;28;20451;-81
2022/01/12 12:40:29;;;;;;;12.57;8.93;;;;;;;0.45;82.33;151486.44;4976699;28;20485;-81
2022/01/12 12:43:07;;;;;;;11.90;9.30;;;;;;;0.43;81.93;151480.03;4990651;28;20946;-81
2022/01/12 12:45:44;;;;;;;14.87;10.90;;;;;;;0.38;82.92;151467.19;4991868;28;20448;-81
2022/01/12 12:48:21;;;;;;;13.20;10.80;;;;;;;0.40;83.63;151473.63;4993650;28;20835;-81
2022/01/12 12:50:59;;;;;;;15.03;11.50;;;;;;;0.36;83.58;151462.09;4990922;28;20541;-80
2022/01/12 12:53:37;;;;;;;16.10;11.20;;;;;;;0.38;84.39;151468.50;4990713;28;20449;-81
2022/01/12 12:56:18;;;;;;;15.93;11.17;;;;;;;0.41;84.65;151474.91;4992683;28;20827;-81
2022/01/12 12:58:55;;;;;;;15.53;11.83;;;;;;;0.43;84.33;151480.03;5003377;28;20445;-81
2022/01/12 13:01:31;;;;;;;15.67;11.70;;;;;;;0.45;83.23;151485.22;4977286;28;20552;-81
2022/01/12 13:04:06;;;;;;;15.90;11.67;;;;;;;0.44;82.41;151483.91;4976497;28;20992;-81
2022/01/12 13:06:42;;;;;;;15.60;11.40;;;;;;;0.42;83.54;151478.78;4991299;28;20462;-80
2022/01/12 13:09:18;;;;;;;15.30;11.20;;;;;;;0.44;83.37;151482.63;4987630;28;20452;-81
2022/01/12 13:11:55;;;;;;;15.70;11.10;;;;;;;0.49;82.96;151496.75;4976750;28;20479;-81